Time;durP1;ratioP1;P1;durP2;ratioP2;P2;SDS_P1;SDS_P2;PMS_P1;PMS_P2;Temp;Humidity;BMP_temperature;BMP_pressure;BME280_temperature;BME280_humidity;BME280_pressure;Samples;Min_cycle;Max_cycle;Signal;HPM_P1;HPM_P2
2021/03/03 00:01:24;;;;;;;286.35;30.73;;;;;;;;;;4994628;28;20037;-80
2021/03/03 00:03:51;;;;;;;210.02;29.63;;;;;;;;;;5006623;28;20041;-80
2021/03/03 00:06:18;;;;;;;235.63;30.00;;;;;;;;;;4990264;28;20132;-80
2021/03/03 00:08:45;;;;;;;192.43;29.55;;;;;;;;;;4999321;28;20055;-80
2021/03/03 00:11:11;;;;;;;230.60;31.77;;;;;;;;;;4992460;28;20166;-81
2021/03/03 00:13:38;;;;;;;218.65;30.38;;;;;;;;;;5026464;28;20918;-81
2021/03/03 00:16:05;;;;;;;165.85;27.92;;;;;;;;;;5001423;28;20132;-80
2021/03/03 00:18:32;;;;;;;182.95;27.30;;;;;;;;;;4998966;28;20770;-80
2021/03/03 00:20:59;;;;;;;187.98;29.23;;;;;;;;;;5009349;28;20047;-80
2021/03/03 00:23:28;;;;;;;185.73;28.13;;;;;;;;;;5009305;28;20052;-81
2021/03/03 00:25:55;;;;;;;230.52;29.73;;;;;;;;;;5010775;28;20132;-80
2021/03/03 00:28:21;;;;;;;262.50;29.45;;;;;;;;;;5006521;28;20049;-80
2021/03/03 00:30:48;;;;;;;229.82;30.00;;;;;;;;;;5008601;28;20137;-80
2021/03/03 00:33:15;;;;;;;218.27;29.08;;;;;;;;;;5016707;28;20045;-81
2021/03/03 00:35:41;;;;;;;179.23;28.90;;;;;;;;;;5012337;28;20141;-80
2021/03/03 00:38:08;;;;;;;200.90;31.67;;;;;;;;;;5005877;28;20832;-80
2021/03/03 00:40:35;;;;;;;245.15;31.35;;;;;;;;;;4993330;28;21008;-81
2021/03/03 00:43:02;;;;;;;157.60;27.75;;;;;;;;;;5009510;28;20052;-81
2021/03/03 00:45:29;;;;;;;227.70;29.85;;;;;;;;;;5018034;28;20125;-80
2021/03/03 00:47:57;;;;;;;186.52;30.05;;;;;;;;;;5015654;28;20038;-80
2021/03/03 00:50:23;;;;;;;158.38;29.08;;;;;;;;;;5023012;28;20048;-81
2021/03/03 00:52:50;;;;;;;149.55;28.42;;;;;;;;;;5013590;28;20144;-81
2021/03/03 00:55:17;;;;;;;197.20;29.50;;;;;;;;;;4994794;28;20128;-81
2021/03/03 00:57:44;;;;;;;174.05;29.48;;;;;;;;;;4989105;28;20065;-81
2021/03/03 01:00:19;;;;;;;217.32;29.30;;;;;;;;;;5006442;28;20798;-81
2021/03/03 01:02:45;;;;;;;279.17;31.30;;;;;;;;;;4994725;28;20155;-81
2021/03/03 01:05:12;;;;;;;200.05;30.17;;;;;;;;;;4989264;28;20072;-80
2021/03/03 01:07:39;;;;;;;323.65;34.85;;;;;;;;;;5023935;28;20068;-79
2021/03/03 01:10:06;;;;;;;237.35;30.35;;;;;;;;;;5029756;28;20162;-79
2021/03/03 01:12:33;;;;;;;266.05;32.70;;;;;;;;;;5012204;28;20185;-80
2021/03/03 01:14:59;;;;;;;221.23;30.00;;;;;;;;;;5021229;28;20061;-80
2021/03/03 01:17:30;;;;;;;288.45;33.95;;;;;;;;;;5002965;28;20065;-80
2021/03/03 01:19:57;;;;;;;259.75;33.38;;;;;;;;;;5019348;28;20125;-80
2021/03/03 01:22:24;;;;;;;223.15;32.65;;;;;;;;;;5027557;23;20838;-80
2021/03/03 01:24:51;;;;;;;204.02;34.47;;;;;;;;;;5019788;28;20704;-80
2021/03/03 01:27:19;;;;;;;247.68;31.77;;;;;;;;;;5025892;28;20041;-80
2021/03/03 01:29:46;;;;;;;208.80;31.75;;;;;;;;;;5044284;28;20173;-80
2021/03/03 01:34:44;;;;;;;243.02;31.95;;;;;;;;;;4941566;28;20277;-80
2021/03/03 01:37:10;;;;;;;288.13;35.25;;;;;;;;;;4947010;28;20481;-80
2021/03/03 01:39:37;;;;;;;329.52;32.65;;;;;;;;;;4947632;28;20115;-80
2021/03/03 01:42:04;;;;;;;199.20;29.33;;;;;;;;;;4947826;28;20050;-80
2021/03/03 01:44:31;;;;;;;187.60;30.45;;;;;;;;;;4949351;28;20066;-81
2021/03/03 01:46:57;;;;;;;284.73;32.83;;;;;;;;;;4947947;28;20111;-80
2021/03/03 01:49:24;;;;;;;248.77;30.05;;;;;;;;;;4941272;28;20046;-81
2021/03/03 01:51:51;;;;;;;269.25;33.15;;;;;;;;;;4949112;28;20070;-80
2021/03/03 01:54:17;;;;;;;252.10;32.72;;;;;;;;;;4948384;28;20102;-81
2021/03/03 01:56:44;;;;;;;224.30;32.05;;;;;;;;;;4947673;28;20055;-81
2021/03/03 01:59:11;;;;;;;312.65;34.88;;;;;;;;;;4949439;28;20035;-80
2021/03/03 02:01:38;;;;;;;202.15;31.40;;;;;;;;;;4948657;28;20039;-81
2021/03/03 02:04:05;;;;;;;241.93;32.25;;;;;;;;;;4948418;28;20039;-80
2021/03/03 02:06:40;;;;;;;281.60;34.22;;;;;;;;;;4947384;28;20848;-81
2021/03/03 02:09:12;;;;;;;293.60;34.88;;;;;;;;;;4948053;28;20042;-81
2021/03/03 02:11:48;;;;;;;272.25;32.00;;;;;;;;;;4947299;28;20067;-81
2021/03/03 02:14:17;;;;;;;263.25;37.58;;;;;;;;;;4947284;28;20043;-81
2021/03/03 02:16:44;;;;;;;307.52;34.42;;;;;;;;;;4955491;23;20113;-80
2021/03/03 02:19:15;;;;;;;377.02;39.47;;;;;;;;;;4928070;29;20066;-80
2021/03/03 02:21:45;;;;;;;206.55;30.33;;;;;;;;;;4926458;29;20134;-80
2021/03/03 02:24:26;;;;;;;317.33;34.47;;;;;;;;;;4910697;29;20050;-80
2021/03/03 02:26:53;;;;;;;171.38;29.42;;;;;;;;;;4910466;29;20055;-80
2021/03/03 02:29:21;;;;;;;270.10;30.95;;;;;;;;;;4928451;29;20043;-80
2021/03/03 02:31:50;;;;;;;247.63;31.70;;;;;;;;;;4910976;29;20043;-80
2021/03/03 02:34:18;;;;;;;168.15;30.75;;;;;;;;;;4910466;29;20047;-80
2021/03/03 02:36:45;;;;;;;167.73;28.95;;;;;;;;;;4910475;29;20122;-80
2021/03/03 02:39:11;;;;;;;236.57;30.75;;;;;;;;;;4910675;29;20134;-80
2021/03/03 02:41:41;;;;;;;203.88;30.83;;;;;;;;;;4910805;29;20135;-80
2021/03/03 02:44:08;;;;;;;227.10;31.13;;;;;;;;;;4910900;29;20071;-80
2021/03/03 02:46:35;;;;;;;240.50;31.17;;;;;;;;;;4910505;29;20047;-80
2021/03/03 02:49:02;;;;;;;228.00;31.75;;;;;;;;;;4907063;29;20644;-80
2021/03/03 02:51:29;;;;;;;219.45;31.50;;;;;;;;;;4928225;29;20675;-80
2021/03/03 02:53:55;;;;;;;198.32;32.80;;;;;;;;;;4927905;29;20370;-80
2021/03/03 02:56:24;;;;;;;216.88;30.77;;;;;;;;;;4913396;29;20130;-80
2021/03/03 02:58:51;;;;;;;179.93;29.63;;;;;;;;;;4911972;29;20744;-80
2021/03/03 03:01:19;;;;;;;245.90;32.40;;;;;;;;;;4900444;29;20042;-80
2021/03/03 03:03:51;;;;;;;295.08;36.03;;;;;;;;;;4921153;29;20590;-81
2021/03/03 03:06:26;;;;;;;217.95;34.67;;;;;;;;;;4909657;29;20050;-80
2021/03/03 03:08:54;;;;;;;249.93;30.95;;;;;;;;;;4911005;29;20142;-80
2021/03/03 03:11:23;;;;;;;318.80;34.15;;;;;;;;;;4925981;29;20252;-80
2021/03/03 03:13:50;;;;;;;253.18;34.42;;;;;;;;;;4928291;29;20074;-80
2021/03/03 03:16:17;;;;;;;218.85;33.75;;;;;;;;;;4914278;29;20820;-80
2021/03/03 03:18:47;;;;;;;208.32;30.27;;;;;;;;;;4928134;29;20122;-80
2021/03/03 03:21:15;;;;;;;272.15;32.42;;;;;;;;;;4927463;29;20051;-80
2021/03/03 03:23:44;;;;;;;211.73;29.55;;;;;;;;;;4911208;29;20122;-80
2021/03/03 03:26:11;;;;;;;252.32;32.03;;;;;;;;;;4910981;29;20043;-80
2021/03/03 03:28:42;;;;;;;273.27;35.40;;;;;;;;;;4927552;28;20137;-80
2021/03/03 03:34:32;;;;;;;215.52;30.38;;;;;;;;;;4904226;29;20052;-80
2021/03/03 03:36:59;;;;;;;242.80;30.10;;;;;;;;;;4908386;29;20134;-79
2021/03/03 03:39:26;;;;;;;202.43;30.73;;;;;;;;;;4907792;29;20079;-79
2021/03/03 03:41:53;;;;;;;183.98;30.48;;;;;;;;;;4908713;29;20043;-79
2021/03/03 03:44:20;;;;;;;207.02;28.85;;;;;;;;;;4891052;29;20106;-79
2021/03/03 03:46:46;;;;;;;246.43;32.45;;;;;;;;;;4890571;29;20126;-80
2021/03/03 03:49:14;;;;;;;177.20;27.58;;;;;;;;;;4890863;29;20050;-80
2021/03/03 03:51:41;;;;;;;148.85;27.40;;;;;;;;;;4889449;29;20194;-80
2021/03/03 03:54:09;;;;;;;246.77;33.40;;;;;;;;;;4891848;29;20728;-80
2021/03/03 03:56:36;;;;;;;156.73;27.88;;;;;;;;;;4891937;29;20052;-80
2021/03/03 03:59:02;;;;;;;173.70;27.85;;;;;;;;;;4890823;29;20131;-79
2021/03/03 04:01:29;;;;;;;165.73;29.40;;;;;;;;;;4891210;29;20059;-79
2021/03/03 04:03:56;;;;;;;108.78;26.27;;;;;;;;;;4891329;29;20044;-79
2021/03/03 04:06:27;;;;;;;103.65;26.70;;;;;;;;;;4892117;29;20048;-80
2021/03/03 04:08:54;;;;;;;137.68;27.05;;;;;;;;;;4908932;29;20070;-79
2021/03/03 04:11:20;;;;;;;136.75;26.77;;;;;;;;;;4891264;29;20143;-79
2021/03/03 04:13:47;;;;;;;90.63;25.80;;;;;;;;;;4908703;29;20162;-80
2021/03/03 04:16:14;;;;;;;149.98;26.63;;;;;;;;;;4891566;29;20135;-80
2021/03/03 04:18:40;;;;;;;86.72;26.13;;;;;;;;;;4890959;29;20048;-79
2021/03/03 04:21:07;;;;;;;77.68;26.13;;;;;;;;;;4891072;29;20134;-79
2021/03/03 04:23:34;;;;;;;71.40;26.30;;;;;;;;;;4907874;29;20056;-79
2021/03/03 04:26:00;;;;;;;107.35;25.58;;;;;;;;;;4891274;29;20723;-79
2021/03/03 04:28:27;;;;;;;79.25;25.15;;;;;;;;;;4891359;29;20127;-79
2021/03/03 04:30:54;;;;;;;83.40;25.25;;;;;;;;;;4907879;29;20067;-80
2021/03/03 04:33:21;;;;;;;92.25;26.17;;;;;;;;;;4907901;29;20043;-79
2021/03/03 04:35:48;;;;;;;90.47;24.75;;;;;;;;;;4891084;29;20110;-79
2021/03/03 04:38:15;;;;;;;109.75;24.13;;;;;;;;;;4890538;29;20894;-80
2021/03/03 04:40:43;;;;;;;95.63;27.40;;;;;;;;;;4888692;29;20044;-80
2021/03/03 04:43:10;;;;;;;104.95;26.13;;;;;;;;;;4906362;29;20044;-79
2021/03/03 04:45:36;;;;;;;136.55;26.90;;;;;;;;;;4890380;29;20207;-80
2021/03/03 04:48:03;;;;;;;83.55;25.13;;;;;;;;;;4891071;29;20135;-80
2021/03/03 04:50:30;;;;;;;71.75;24.60;;;;;;;;;;4907212;29;20051;-79
2021/03/03 04:52:57;;;;;;;98.47;24.58;;;;;;;;;;4887770;29;20136;-80
2021/03/03 04:55:26;;;;;;;119.88;25.17;;;;;;;;;;4891217;29;20082;-80
2021/03/03 04:57:53;;;;;;;74.95;24.25;;;;;;;;;;4908405;29;20718;-80
2021/03/03 05:00:20;;;;;;;63.33;23.27;;;;;;;;;;4907118;29;20110;-80
2021/03/03 05:02:47;;;;;;;63.75;24.70;;;;;;;;;;4899687;23;20479;-80
2021/03/03 05:05:14;;;;;;;72.10;24.42;;;;;;;;;;4905378;29;20039;-79
2021/03/03 05:07:41;;;;;;;67.18;25.00;;;;;;;;;;4904794;29;20048;-79
2021/03/03 05:10:08;;;;;;;125.28;25.77;;;;;;;;;;4905244;29;20079;-80
2021/03/03 05:12:35;;;;;;;83.00;25.25;;;;;;;;;;4904709;29;20195;-79
2021/03/03 05:15:01;;;;;;;86.53;28.33;;;;;;;;;;4902704;29;20083;-79
2021/03/03 05:17:30;;;;;;;80.50;24.50;;;;;;;;;;4899895;29;20795;-80
2021/03/03 05:19:57;;;;;;;79.35;24.42;;;;;;;;;;4899082;29;20135;-79
2021/03/03 05:22:23;;;;;;;85.43;25.35;;;;;;;;;;4898308;29;20642;-80
2021/03/03 05:24:50;;;;;;;98.78;25.63;;;;;;;;;;4905368;29;20134;-79
2021/03/03 05:27:17;;;;;;;122.03;27.00;;;;;;;;;;4920471;28;20706;-80
2021/03/03 05:29:44;;;;;;;85.50;26.65;;;;;;;;;;4900047;29;20047;-79
2021/03/03 05:32:11;;;;;;;68.57;25.23;;;;;;;;;;4902360;29;20075;-80
2021/03/03 05:34:38;;;;;;;101.75;25.83;;;;;;;;;;4906342;29;20707;-80
2021/03/03 05:37:05;;;;;;;129.65;26.95;;;;;;;;;;4905772;29;20873;-80
2021/03/03 05:39:31;;;;;;;136.95;28.00;;;;;;;;;;4903334;29;20071;-80
2021/03/03 05:41:59;;;;;;;92.45;25.13;;;;;;;;;;4909460;28;20178;-80
2021/03/03 05:44:27;;;;;;;111.00;27.55;;;;;;;;;;4904390;29;20231;-79
2021/03/03 05:46:54;;;;;;;115.05;27.40;;;;;;;;;;4905711;29;20791;-79
2021/03/03 05:49:23;;;;;;;114.05;28.85;;;;;;;;;;4906539;29;20043;-82
2021/03/03 05:51:50;;;;;;;81.20;27.02;;;;;;;;;;4923206;28;20141;-81
2021/03/03 05:54:17;;;;;;;77.38;28.25;;;;;;;;;;4926242;28;20140;-81
2021/03/03 05:56:44;;;;;;;76.43;25.88;;;;;;;;;;4892311;29;20815;-82
2021/03/03 05:59:17;;;;;;;92.80;26.98;;;;;;;;;;4895980;29;20389;-81
2021/03/03 06:01:45;;;;;;;69.75;27.05;;;;;;;;;;4893839;29;20111;-82
2021/03/03 06:04:21;;;;;;;66.35;23.98;;;;;;;;;;4891541;29;20040;-82
2021/03/03 06:06:48;;;;;;;67.95;25.17;;;;;;;;;;4892954;29;20055;-81
2021/03/03 06:09:15;;;;;;;82.25;26.65;;;;;;;;;;4891199;29;20131;-79
2021/03/03 06:11:42;;;;;;;75.88;24.67;;;;;;;;;;4908188;29;20075;-80
2021/03/03 06:14:15;;;;;;;61.70;24.10;;;;;;;;;;4913209;29;20157;-78
2021/03/03 06:16:42;;;;;;;59.83;24.95;;;;;;;;;;4909089;29;20071;-77
2021/03/03 06:19:09;;;;;;;53.25;23.55;;;;;;;;;;4916767;28;20054;-78
2021/03/03 06:21:39;;;;;;;47.03;22.90;;;;;;;;;;4910452;28;20044;-79
2021/03/03 06:24:06;;;;;;;53.53;23.23;;;;;;;;;;4900331;29;20044;-79
2021/03/03 06:26:34;;;;;;;50.75;22.50;;;;;;;;;;4912363;29;20119;-78
2021/03/03 06:29:01;;;;;;;52.67;23.48;;;;;;;;;;4910417;29;20071;-81
2021/03/03 06:31:27;;;;;;;54.85;23.55;;;;;;;;;;4922710;28;20075;-82
2021/03/03 06:34:08;;;;;;;48.30;23.02;;;;;;;;;;4908833;29;20134;-80
2021/03/03 06:36:34;;;;;;;52.92;23.20;;;;;;;;;;4908815;29;20130;-81
2021/03/03 06:39:21;;;;;;;52.67;24.35;;;;;;;;;;4902825;28;20111;-82
2021/03/03 06:41:49;;;;;;;55.47;24.95;;;;;;;;;;4906201;29;20579;-78
2021/03/03 06:44:16;;;;;;;54.60;24.55;;;;;;;;;;4909094;29;20851;-81
2021/03/03 06:46:42;;;;;;;52.08;23.33;;;;;;;;;;4908626;29;20940;-80
2021/03/03 06:49:23;;;;;;;48.75;23.88;;;;;;;;;;4909066;29;20054;-79
2021/03/03 06:51:50;;;;;;;50.50;25.00;;;;;;;;;;4924288;28;20052;-80
2021/03/03 06:54:21;;;;;;;52.22;23.83;;;;;;;;;;4925131;28;20058;-81
2021/03/03 06:56:48;;;;;;;61.53;26.25;;;;;;;;;;4925762;28;20055;-82
2021/03/03 06:59:24;;;;;;;55.53;27.25;;;;;;;;;;4910887;29;20044;-80
2021/03/03 07:01:58;;;;;;;51.58;24.35;;;;;;;;;;4908342;29;20791;-80
2021/03/03 07:04:27;;;;;;;53.35;24.35;;;;;;;;;;4909792;29;20040;-80
2021/03/03 07:06:55;;;;;;;56.10;26.13;;;;;;;;;;4908037;29;20698;-80
2021/03/03 07:09:25;;;;;;;54.13;25.60;;;;;;;;;;4908174;29;20199;-80
2021/03/03 07:15:00;;;;;;;55.55;24.90;;;;;;;;;;4910601;29;20302;-81
2021/03/03 07:17:34;;;;;;;56.17;24.48;;;;;;;;;;4901362;29;20138;-81
2021/03/03 07:20:02;;;;;;;;;;;;;;;;;;4906760;29;20044;-81
2021/03/03 07:22:30;;;;;;;51.28;24.25;;;;;;;;;;4906210;29;20010;-82
2021/03/03 07:24:58;;;;;;;47.65;24.15;;;;;;;;;;4926988;28;20048;-82
2021/03/03 07:27:25;;;;;;;58.35;25.05;;;;;;;;;;4910020;29;20106;-81
2021/03/03 07:29:53;;;;;;;52.78;24.77;;;;;;;;;;4911762;29;20043;-82
2021/03/03 07:32:20;;;;;;;56.00;25.48;;;;;;;;;;4910499;29;20043;-82
2021/03/03 07:34:48;;;;;;;54.97;25.50;;;;;;;;;;4909398;29;20052;-82
2021/03/03 07:37:16;;;;;;;55.22;26.15;;;;;;;;;;4910005;29;20131;-83
2021/03/03 07:39:46;;;;;;;57.20;24.67;;;;;;;;;;4910712;29;20131;-83
2021/03/03 07:42:15;;;;;;;52.92;25.52;;;;;;;;;;4907552;29;20762;-83
2021/03/03 07:44:42;;;;;;;49.55;25.13;;;;;;;;;;4907240;29;20682;-83
2021/03/03 07:47:10;;;;;;;54.00;25.60;;;;;;;;;;4905328;29;20104;-82
2021/03/03 07:49:37;;;;;;;58.38;26.38;;;;;;;;;;4905846;29;20103;-83
2021/03/03 07:52:05;;;;;;;56.45;26.25;;;;;;;;;;4924026;28;20047;-83
2021/03/03 07:54:32;;;;;;;51.28;24.90;;;;;;;;;;4908530;29;20138;-83
2021/03/03 07:57:03;;;;;;;51.33;24.55;;;;;;;;;;4908553;29;20060;-79
2021/03/03 07:59:32;;;;;;;58.25;25.42;;;;;;;;;;4908818;29;20724;-79
2021/03/03 08:01:59;;;;;;;59.03;25.92;;;;;;;;;;4906831;29;20052;-79
2021/03/03 08:04:36;;;;;;;58.33;26.75;;;;;;;;;;4906306;29;20050;-79
2021/03/03 08:07:21;;;;;;;56.03;26.92;;;;;;;;;;4907123;29;20053;-79
2021/03/03 08:10:06;;;;;;;56.70;27.23;;;;;;;;;;4905859;29;20137;-78
2021/03/03 08:12:33;;;;;;;64.05;30.92;;;;;;;;;;4905838;29;20154;-79
2021/03/03 08:15:00;;;;;;;53.85;28.67;;;;;;;;;;4907459;29;20115;-78
2021/03/03 08:17:26;;;;;;;65.13;30.02;;;;;;;;;;4907082;29;20087;-78
2021/03/03 08:19:59;;;;;;;59.20;28.77;;;;;;;;;;4906705;29;20736;-78
2021/03/03 08:22:45;;;;;;;53.25;25.58;;;;;;;;;;4907208;29;20056;-79
2021/03/03 08:25:11;;;;;;;;;;;;;;;;;;4909561;29;20713;-79
2021/03/03 08:27:38;;;;;;;45.08;24.45;;;;;;;;;;4908352;29;20009;-79
2021/03/03 08:30:12;;;;;;;53.08;26.17;;;;;;;;;;4907866;29;20056;-79
2021/03/03 08:32:39;;;;;;;59.90;26.73;;;;;;;;;;4906564;29;20051;-80
2021/03/03 08:35:07;;;;;;;53.55;27.08;;;;;;;;;;4905791;29;20052;-79
2021/03/03 08:37:50;;;;;;;47.30;25.90;;;;;;;;;;4905677;29;20385;-79
2021/03/03 08:40:25;;;;;;;48.28;25.40;;;;;;;;;;4908962;29;20075;-82
2021/03/03 08:42:52;;;;;;;58.63;28.95;;;;;;;;;;4907444;29;20848;-83
2021/03/03 08:45:20;;;;;;;53.03;26.80;;;;;;;;;;4908385;29;20131;-82
2021/03/03 08:47:49;;;;;;;61.78;29.35;;;;;;;;;;4906713;29;20062;-83
2021/03/03 08:50:26;;;;;;;62.42;29.10;;;;;;;;;;4906554;29;20059;-80
2021/03/03 08:53:12;;;;;;;50.83;25.08;;;;;;;;;;4906175;29;20044;-79
2021/03/03 08:55:45;;;;;;;50.90;25.58;;;;;;;;;;4906059;29;20146;-79
2021/03/03 08:58:46;;;;;;;53.45;27.10;;;;;;;;;;4905444;29;20058;-79
2021/03/03 09:01:16;;;;;;;55.35;26.73;;;;;;;;;;4907381;29;20058;-79
2021/03/03 09:03:45;;;;;;;55.88;25.08;;;;;;;;;;4905608;29;20107;-79
2021/03/03 09:06:33;;;;;;;62.00;28.17;;;;;;;;;;4905870;29;20047;-79
2021/03/03 09:09:01;;;;;;;53.42;26.77;;;;;;;;;;4907050;29;20052;-79
2021/03/03 09:11:27;;;;;;;62.47;27.45;;;;;;;;;;4906325;29;20720;-80
2021/03/03 09:13:57;;;;;;;55.55;26.30;;;;;;;;;;4907580;29;20730;-80
2021/03/03 09:16:24;;;;;;;52.60;26.08;;;;;;;;;;4907460;29;20633;-80
2021/03/03 09:19:04;;;;;;;48.88;24.75;;;;;;;;;;4907051;29;20048;-79
2021/03/03 09:21:31;;;;;;;51.90;26.60;;;;;;;;;;4906450;29;20048;-80
2021/03/03 09:24:08;;;;;;;52.53;26.67;;;;;;;;;;4908844;29;20056;-82
2021/03/03 09:26:36;;;;;;;51.17;26.27;;;;;;;;;;4909274;29;20048;-82
2021/03/03 09:29:04;;;;;;;53.58;25.40;;;;;;;;;;4912718;29;20039;-82
2021/03/03 09:31:32;;;;;;;44.88;24.17;;;;;;;;;;4913978;29;20048;-82
2021/03/03 09:33:59;;;;;;;46.75;24.60;;;;;;;;;;4911992;29;20055;-82
2021/03/03 09:36:27;;;;;;;42.55;23.77;;;;;;;;;;4913804;29;20098;-84
2021/03/03 09:38:57;;;;;;;44.15;24.52;;;;;;;;;;4893208;29;20044;-80
2021/03/03 09:41:23;;;;;;;38.85;22.65;;;;;;;;;;4891473;29;20040;-80
2021/03/03 09:44:04;;;;;;;49.58;24.83;;;;;;;;;;4891055;29;20192;-80
2021/03/03 09:46:49;;;;;;;39.08;22.17;;;;;;;;;;4890746;29;20139;-80
2021/03/03 09:49:29;;;;;;;42.10;22.88;;;;;;;;;;4910753;29;20134;-80
2021/03/03 09:51:57;;;;;;;42.42;22.85;;;;;;;;;;4910963;29;20126;-80
2021/03/03 09:54:37;;;;;;;38.65;21.75;;;;;;;;;;4910089;29;20075;-80
2021/03/03 09:57:11;;;;;;;43.35;23.33;;;;;;;;;;4909258;29;20044;-80
2021/03/03 09:59:44;;;;;;;46.40;25.77;;;;;;;;;;4911747;29;20756;-79
2021/03/03 10:02:12;;;;;;;47.38;25.65;;;;;;;;;;4909216;29;20052;-80
2021/03/03 10:04:39;;;;;;;38.80;23.42;;;;;;;;;;4910063;29;20183;-81
2021/03/03 10:07:21;;;;;;;39.35;24.55;;;;;;;;;;4908377;29;20054;-81
2021/03/03 10:09:49;;;;;;;40.60;24.80;;;;;;;;;;4909952;29;20208;-82
2021/03/03 10:12:17;;;;;;;38.28;24.35;;;;;;;;;;4910052;29;20712;-81
2021/03/03 10:15:03;;;;;;;37.55;23.83;;;;;;;;;;4908674;29;20083;-81
2021/03/03 10:17:51;;;;;;;39.55;25.00;;;;;;;;;;4908142;29;20928;-81
2021/03/03 10:20:33;;;;;;;37.72;24.33;;;;;;;;;;4924652;28;20048;-82
2021/03/03 10:23:05;;;;;;;45.35;25.73;;;;;;;;;;4924395;28;20734;-82
2021/03/03 10:25:45;;;;;;;38.47;23.27;;;;;;;;;;4928023;28;20145;-82
2021/03/03 10:28:23;;;;;;;34.67;23.67;;;;;;;;;;4912455;28;20056;-82
2021/03/03 10:30:51;;;;;;;36.78;23.73;;;;;;;;;;4909443;29;20158;-82
2021/03/03 10:33:31;;;;;;;35.67;23.48;;;;;;;;;;4911222;29;20170;-82
2021/03/03 10:35:59;;;;;;;37.03;24.02;;;;;;;;;;4891064;29;20048;-82
2021/03/03 10:38:27;;;;;;;35.15;23.42;;;;;;;;;;4889272;29;20048;-80
2021/03/03 10:40:54;;;;;;;32.30;22.67;;;;;;;;;;4889105;29;20115;-80
2021/03/03 10:43:23;;;;;;;35.63;23.52;;;;;;;;;;4897214;29;20086;-80
2021/03/03 10:46:08;;;;;;;40.10;22.88;;;;;;;;;;4908862;29;20055;-80
2021/03/03 10:48:36;;;;;;;33.00;22.77;;;;;;;;;;4908869;29;20078;-80
2021/03/03 10:51:04;;;;;;;35.22;23.17;;;;;;;;;;4907932;29;20049;-80
2021/03/03 10:53:51;;;;;;;35.63;22.77;;;;;;;;;;4908548;29;20048;-81
2021/03/03 10:56:28;;;;;;;30.23;21.75;;;;;;;;;;4908215;29;20794;-82
2021/03/03 10:58:57;;;;;;;34.38;23.00;;;;;;;;;;4909720;29;20913;-83
2021/03/03 11:01:25;;;;;;;34.10;22.42;;;;;;;;;;4909826;29;20131;-83
2021/03/03 11:03:57;;;;;;;34.30;21.23;;;;;;;;;;4907239;29;20843;-81
2021/03/03 11:06:28;;;;;;;41.35;22.17;;;;;;;;;;4907688;29;20134;-80
2021/03/03 11:08:55;;;;;;;34.22;21.65;;;;;;;;;;4908129;29;20138;-80
2021/03/03 11:11:22;;;;;;;31.88;20.70;;;;;;;;;;4908145;29;20753;-80
2021/03/03 11:13:53;;;;;;;28.60;21.10;;;;;;;;;;4908960;29;20559;-80
2021/03/03 11:16:23;;;;;;;32.70;20.60;;;;;;;;;;4923092;28;20039;-79
2021/03/03 11:18:50;;;;;;;32.92;20.42;;;;;;;;;;4907823;29;20048;-80
2021/03/03 11:21:17;;;;;;;33.38;20.38;;;;;;;;;;4909282;29;20043;-80
2021/03/03 11:23:45;;;;;;;34.58;21.27;;;;;;;;;;4906878;29;20110;-80
2021/03/03 11:26:12;;;;;;;34.03;20.02;;;;;;;;;;4908460;29;20154;-80
2021/03/03 11:28:39;;;;;;;28.05;18.80;;;;;;;;;;4909254;29;20051;-80
2021/03/03 11:31:06;;;;;;;30.88;18.95;;;;;;;;;;4908144;29;20055;-80
2021/03/03 11:33:33;;;;;;;35.33;19.63;;;;;;;;;;4908520;29;20135;-80
2021/03/03 11:36:01;;;;;;;29.33;17.65;;;;;;;;;;4906233;29;20080;-82
2021/03/03 11:38:29;;;;;;;23.58;17.25;;;;;;;;;;4908382;29;20090;-82
2021/03/03 11:40:56;;;;;;;26.70;17.05;;;;;;;;;;4908362;29;20083;-81
2021/03/03 11:43:23;;;;;;;22.75;16.20;;;;;;;;;;4907104;29;20067;-81
2021/03/03 11:45:50;;;;;;;24.42;16.80;;;;;;;;;;4907658;29;20797;-80
2021/03/03 11:48:16;;;;;;;22.60;16.50;;;;;;;;;;4906794;29;20126;-81
2021/03/03 11:50:43;;;;;;;20.45;16.30;;;;;;;;;;4921510;28;20048;-81
2021/03/03 11:53:10;;;;;;;26.25;16.58;;;;;;;;;;5024192;22;20081;-95
2021/03/03 11:55:37;;;;;;;26.40;16.42;;;;;;;;;;4994974;28;20049;-95
2021/03/03 11:58:04;;;;;;;23.42;16.60;;;;;;;;;;4994567;28;20055;-92
2021/03/03 12:00:49;;;;;;;23.75;15.23;;;;;;;;;;4995907;28;20141;-95
2021/03/03 12:03:16;;;;;;;23.38;16.27;;;;;;;;;;4995811;28;20371;-94
2021/03/03 12:05:43;;;;;;;20.00;16.13;;;;;;;;;;4996033;28;20165;-95
2021/03/03 12:08:11;;;;;;;23.00;16.20;;;;;;;;;;4994583;28;20057;-95
2021/03/03 12:10:38;;;;;;;22.70;15.57;;;;;;;;;;4995100;28;20046;-95
2021/03/03 12:13:08;;;;;;;23.08;15.88;;;;;;;;;;4994307;28;20058;-95
2021/03/03 12:15:35;;;;;;;23.63;15.50;;;;;;;;;;4994654;28;20050;-95
2021/03/03 12:18:05;;;;;;;23.88;16.33;;;;;;;;;;4993926;28;20057;-95
2021/03/03 12:20:33;;;;;;;23.35;17.40;;;;;;;;;;4994496;28;20486;-89
2021/03/03 12:23:02;;;;;;;23.23;16.90;;;;;;;;;;4996132;28;20070;-94
2021/03/03 12:25:29;;;;;;;24.98;15.75;;;;;;;;;;5007115;28;20054;-95
2021/03/03 12:27:57;;;;;;;23.23;16.05;;;;;;;;;;5010507;28;20034;-95
2021/03/03 12:30:24;;;;;;;22.35;17.45;;;;;;;;;;5009130;28;20046;-95
2021/03/03 12:32:51;;;;;;;26.00;17.60;;;;;;;;;;5011019;28;20101;-94
2021/03/03 12:35:18;;;;;;;22.65;16.75;;;;;;;;;;5012391;28;20069;-94
2021/03/03 12:37:44;;;;;;;25.08;16.90;;;;;;;;;;5011026;28;20038;-93
2021/03/03 12:40:11;;;;;;;27.00;17.88;;;;;;;;;;5012181;28;20310;-94
2021/03/03 12:42:38;;;;;;;27.67;17.08;;;;;;;;;;5013539;28;20081;-93
2021/03/03 12:45:06;;;;;;;36.95;17.05;;;;;;;;;;5011357;28;20050;-95
2021/03/03 12:47:33;;;;;;;29.70;17.52;;;;;;;;;;4998857;28;20050;-95
2021/03/03 12:50:00;;;;;;;27.08;17.10;;;;;;;;;;5008937;28;20564;-95
2021/03/03 12:52:27;;;;;;;25.95;16.67;;;;;;;;;;5008521;28;20077;-96
2021/03/03 12:54:54;;;;;;;25.50;16.65;;;;;;;;;;5006990;28;20045;-93
2021/03/03 12:57:21;;;;;;;23.08;16.77;;;;;;;;;;5005803;28;20078;-94
2021/03/03 12:59:49;;;;;;;25.17;16.50;;;;;;;;;;5006144;28;20070;-95
2021/03/03 13:02:16;;;;;;;25.70;16.63;;;;;;;;;;4971833;28;20630;-95
2021/03/03 13:04:49;;;;;;;28.35;17.52;;;;;;;;;;4975609;28;20109;-93
2021/03/03 13:07:16;;;;;;;28.70;18.90;;;;;;;;;;4976475;28;20138;-95
2021/03/03 13:09:44;;;;;;;26.38;17.23;;;;;;;;;;4977160;28;20125;-94
2021/03/03 13:12:11;;;;;;;24.27;16.30;;;;;;;;;;4977346;28;20047;-95
2021/03/03 13:14:38;;;;;;;25.67;15.95;;;;;;;;;;4976077;28;20051;-94
2021/03/03 13:17:06;;;;;;;23.95;16.92;;;;;;;;;;4994461;28;20057;-94
2021/03/03 13:19:34;;;;;;;24.83;15.70;;;;;;;;;;5013700;28;20129;-94
2021/03/03 13:22:01;;;;;;;26.63;16.00;;;;;;;;;;5011659;28;20077;-94
2021/03/03 13:24:27;;;;;;;27.17;15.82;;;;;;;;;;5009516;28;20046;-95
2021/03/03 13:26:54;;;;;;;28.40;16.90;;;;;;;;;;5007465;28;20046;-94
2021/03/03 13:29:23;;;;;;;31.52;17.48;;;;;;;;;;4987463;28;20541;-95
2021/03/03 13:31:50;;;;;;;42.47;18.80;;;;;;;;;;4987277;28;20136;-90
2021/03/03 13:34:18;;;;;;;31.55;17.08;;;;;;;;;;4987465;28;20479;-94
2021/03/03 13:36:45;;;;;;;27.60;16.30;;;;;;;;;;4987754;28;20050;-94
2021/03/03 13:39:12;;;;;;;30.15;16.75;;;;;;;;;;4985899;28;20048;-94
2021/03/03 13:41:39;;;;;;;30.17;16.85;;;;;;;;;;4983752;28;20148;-94
2021/03/03 13:44:06;;;;;;;31.08;16.80;;;;;;;;;;4982620;28;20109;-94
2021/03/03 13:46:33;;;;;;;32.97;17.67;;;;;;;;;;4983780;28;20336;-94
2021/03/03 13:49:00;;;;;;;32.35;18.08;;;;;;;;;;5000583;28;20061;-94
2021/03/03 13:51:27;;;;;;;32.08;17.60;;;;;;;;;;5002427;28;20321;-94
2021/03/03 13:53:53;;;;;;;35.95;18.30;;;;;;;;;;5001830;28;20760;-93
2021/03/03 13:56:20;;;;;;;31.70;18.00;;;;;;;;;;4993208;28;20072;-94
2021/03/03 13:58:47;;;;;;;30.75;18.55;;;;;;;;;;4983776;28;20081;-93
2021/03/03 14:01:14;;;;;;;35.13;18.30;;;;;;;;;;4984639;28;20386;-93
2021/03/03 14:03:40;;;;;;;37.15;19.05;;;;;;;;;;4982922;28;20197;-94
2021/03/03 14:06:08;;;;;;;42.78;20.10;;;;;;;;;;4982882;28;20081;-94
2021/03/03 14:08:34;;;;;;;40.80;20.35;;;;;;;;;;4977455;28;20134;-93
2021/03/03 14:11:01;;;;;;;32.42;18.80;;;;;;;;;;4974859;28;20268;-93
2021/03/03 14:13:28;;;;;;;40.20;18.52;;;;;;;;;;4973278;28;20058;-92
2021/03/03 14:15:55;;;;;;;36.22;17.92;;;;;;;;;;4973717;28;20042;-93
2021/03/03 14:18:22;;;;;;;39.53;20.38;;;;;;;;;;4990742;28;20050;-93
2021/03/03 14:20:49;;;;;;;41.20;20.92;;;;;;;;;;4973788;28;20046;-92
2021/03/03 14:23:16;;;;;;;37.10;19.25;;;;;;;;;;4975330;28;20789;-92
2021/03/03 14:25:43;;;;;;;33.90;17.45;;;;;;;;;;4974803;28;20080;-93
2021/03/03 14:28:10;;;;;;;42.88;18.90;;;;;;;;;;4973799;28;20065;-91
2021/03/03 14:30:37;;;;;;;33.63;18.63;;;;;;;;;;4973840;28;20054;-93
2021/03/03 14:33:04;;;;;;;39.95;18.52;;;;;;;;;;4976902;28;20354;-92